sensor_id;sensor_type;location;lat;lon;timestamp;temperature;humidity
3818;DHT22;1924;48.078;11.516;2023-09-07T04:00:24;14.00;99.90
3818;DHT22;1924;48.078;11.516;2023-09-07T04:02:51;14.10;99.90
3818;DHT22;1924;48.078;11.516;2023-09-07T04:05:18;14.00;99.90
3818;DHT22;1924;48.078;11.516;2023-09-07T04:07:45;14.00;99.90
3818;DHT22;1924;48.078;11.516;2023-09-07T04:10:11;14.00;99.90
3818;DHT22;1924;48.078;11.516;2023-09-07T04:12:38;14.10;99.90
3818;DHT22;1924;48.078;11.516;2023-09-07T04:15:06;14.00;99.90
3818;DHT22;1924;48.078;11.516;2023-09-07T04:17:34;13.80;99.90
3818;DHT22;1924;48.078;11.516;2023-09-07T04:20:06;13.70;99.90
3818;DHT22;1924;48.078;11.516;2023-09-07T04:22:34;13.70;99.90
3818;DHT22;1924;48.078;11.516;2023-09-07T04:25:01;13.80;99.90
3818;DHT22;1924;48.078;11.516;2023-09-07T04:27:28;13.80;99.90
3818;DHT22;1924;48.078;11.516;2023-09-07T04:29:56;13.80;99.90
3818;DHT22;1924;48.078;11.516;2023-09-07T04:32:23;13.80;99.90
3818;DHT22;1924;48.078;11.516;2023-09-07T04:34:54;13.70;99.90
3818;DHT22;1924;48.078;11.516;2023-09-07T04:37:21;13.70;99.90
3818;DHT22;1924;48.078;11.516;2023-09-07T04:39:51;13.70;99.90
3818;DHT22;1924;48.078;11.516;2023-09-07T04:42:18;13.70;99.90
3818;DHT22;1924;48.078;11.516;2023-09-07T04:44:45;13.70;99.90
3818;DHT22;1924;48.078;11.516;2023-09-07T04:47:12;13.50;99.90
3818;DHT22;1924;48.078;11.516;2023-09-07T04:49:39;13.40;99.90
3818;DHT22;1924;48.078;11.516;2023-09-07T04:52:07;13.40;99.90
3818;DHT22;1924;48.078;11.516;2023-09-07T04:54:35;13.40;99.90
3818;DHT22;1924;48.078;11.516;2023-09-07T04:57:02;13.40;99.90
3818;DHT22;1924;48.078;11.516;2023-09-07T04:59:30;13.40;99.90
3818;DHT22;1924;48.078;11.516;2023-09-07T05:01:59;13.40;99.90
3818;DHT22;1924;48.078;11.516;2023-09-07T05:04:27;13.50;99.90
3818;DHT22;1924;48.078;11.516;2023-09-07T05:06:55;13.60;99.90
3818;DHT22;1924;48.078;11.516;2023-09-07T05:09:23;13.80;99.90
3818;DHT22;1924;48.078;11.516;2023-09-07T05:11:51;13.80;99.90
3818;DHT22;1924;48.078;11.516;2023-09-07T05:14:17;13.90;99.90
3818;DHT22;1924;48.078;11.516;2023-09-07T05:16:44;13.90;99.90
3818;DHT22;1924;48.078;11.516;2023-09-07T05:19:11;13.90;99.90
3818;DHT22;1924;48.078;11.516;2023-09-07T05:21:38;14.00;99.90
3818;DHT22;1924;48.078;11.516;2023-09-07T05:24:05;14.00;99.90
3818;DHT22;1924;48.078;11.516;2023-09-07T05:26:34;14.00;99.90
3818;DHT22;1924;48.078;11.516;2023-09-07T05:29:05;14.10;99.90
3818;DHT22;1924;48.078;11.516;2023-09-07T05:31:31;14.20;99.90
3818;DHT22;1924;48.078;11.516;2023-09-07T05:33:58;14.30;99.90
3818;DHT22;1924;48.078;11.516;2023-09-07T05:36:26;14.40;99.90
3818;DHT22;1924;48.078;11.516;2023-09-07T05:38:53;14.40;99.90
3818;DHT22;1924;48.078;11.516;2023-09-07T05:41:20;14.40;99.90
3818;DHT22;1924;48.078;11.516;2023-09-07T05:43:48;14.50;99.90
3818;DHT22;1924;48.078;11.516;2023-09-07T05:46:15;14.60;99.90
3818;DHT22;1924;48.078;11.516;2023-09-07T05:48:42;14.60;99.90
3818;DHT22;1924;48.078;11.516;2023-09-07T05:51:09;14.70;99.90
3818;DHT22;1924;48.078;11.516;2023-09-07T05:53:36;14.70;99.90
3818;DHT22;1924;48.078;11.516;2023-09-07T05:56:03;14.80;99.90
3818;DHT22;1924;48.078;11.516;2023-09-07T05:58:29;15.20;99.90
3818;DHT22;1924;48.078;11.516;2023-09-07T06:00:58;16.90;99.90
3818;DHT22;1924;48.078;11.516;2023-09-07T06:03:26;19.10;99.90
3818;DHT22;1924;48.078;11.516;2023-09-07T06:06:00;21.00;99.80
3818;DHT22;1924;48.078;11.516;2023-09-07T06:08:28;22.40;96.90
3818;DHT22;1924;48.078;11.516;2023-09-07T06:10:54;23.00;94.80
3818;DHT22;1924;48.078;11.516;2023-09-07T06:13:21;22.40;94.90
3818;DHT22;1924;48.078;11.516;2023-09-07T06:15:51;21.50;95.50
3818;DHT22;1924;48.078;11.516;2023-09-07T06:18:28;20.60;96.80
3818;DHT22;1924;48.078;11.516;2023-09-07T06:20:55;19.90;98.50
3818;DHT22;1924;48.078;11.516;2023-09-07T06:23:22;19.40;99.50
3818;DHT22;1924;48.078;11.516;2023-09-07T06:25:49;19.10;99.90
3818;DHT22;1924;48.078;11.516;2023-09-07T06:28:16;18.90;99.90
3818;DHT22;1924;48.078;11.516;2023-09-07T06:30:43;18.90;99.90
3818;DHT22;1924;48.078;11.516;2023-09-07T06:33:10;18.90;99.90
3818;DHT22;1924;48.078;11.516;2023-09-07T06:35:38;18.60;99.90
3818;DHT22;1924;48.078;11.516;2023-09-07T06:38:04;18.40;99.90
3818;DHT22;1924;48.078;11.516;2023-09-07T06:40:31;18.40;99.90
3818;DHT22;1924;48.078;11.516;2023-09-07T06:42:58;18.50;99.90
3818;DHT22;1924;48.078;11.516;2023-09-07T06:45:26;18.20;99.90
3818;DHT22;1924;48.078;11.516;2023-09-07T06:47:53;17.80;99.90
3818;DHT22;1924;48.078;11.516;2023-09-07T06:50:20;17.90;99.90
3818;DHT22;1924;48.078;11.516;2023-09-07T06:52:48;17.70;99.90
3818;DHT22;1924;48.078;11.516;2023-09-07T06:55:16;17.70;99.90
3818;DHT22;1924;48.078;11.516;2023-09-07T06:57:43;17.90;99.90
3818;DHT22;1924;48.078;11.516;2023-09-07T07:00:11;18.00;99.90
3818;DHT22;1924;48.078;11.516;2023-09-07T07:02:38;18.20;99.90
3818;DHT22;1924;48.078;11.516;2023-09-07T07:05:06;18.20;99.90
3818;DHT22;1924;48.078;11.516;2023-09-07T07:07:34;18.40;99.90
3818;DHT22;1924;48.078;11.516;2023-09-07T07:10:02;18.50;99.90
3818;DHT22;1924;48.078;11.516;2023-09-07T07:12:30;18.40;99.90
3818;DHT22;1924;48.078;11.516;2023-09-07T07:15:00;18.30;99.90
3818;DHT22;1924;48.078;11.516;2023-09-07T07:17:27;18.10;99.90
3818;DHT22;1924;48.078;11.516;2023-09-07T07:19:53;18.10;99.90
3818;DHT22;1924;48.078;11.516;2023-09-07T07:22:20;17.80;99.90
3818;DHT22;1924;48.078;11.516;2023-09-07T07:24:47;17.80;99.90
3818;DHT22;1924;48.078;11.516;2023-09-07T07:27:15;18.00;99.90
3818;DHT22;1924;48.078;11.516;2023-09-07T07:29:42;18.10;99.90
3818;DHT22;1924;48.078;11.516;2023-09-07T07:32:09;18.50;99.90
3818;DHT22;1924;48.078;11.516;2023-09-07T07:34:35;18.80;99.90
3818;DHT22;1924;48.078;11.516;2023-09-07T07:37:05;19.10;99.90
3818;DHT22;1924;48.078;11.516;2023-09-07T07:39:32;19.00;99.90
3818;DHT22;1924;48.078;11.516;2023-09-07T07:42:02;18.90;99.90
3818;DHT22;1924;48.078;11.516;2023-09-07T07:44:31;18.90;99.90
3818;DHT22;1924;48.078;11.516;2023-09-07T07:46:58;18.60;99.90
3818;DHT22;1924;48.078;11.516;2023-09-07T07:49:25;18.80;99.90
3818;DHT22;1924;48.078;11.516;2023-09-07T07:51:52;18.90;99.90
3818;DHT22;1924;48.078;11.516;2023-09-07T07:54:20;19.00;99.90
3818;DHT22;1924;48.078;11.516;2023-09-07T07:56:48;19.10;99.90
3818;DHT22;1924;48.078;11.516;2023-09-07T07:59:15;19.10;99.90
3818;DHT22;1924;48.078;11.516;2023-09-07T08:01:43;19.30;99.90
3818;DHT22;1924;48.078;11.516;2023-09-07T08:04:10;19.20;99.90
3818;DHT22;1924;48.078;11.516;2023-09-07T08:06:37;19.20;99.90
3818;DHT22;1924;48.078;11.516;2023-09-07T08:09:04;19.30;99.90
3818;DHT22;1924;48.078;11.516;2023-09-07T08:11:31;19.50;99.90
3818;DHT22;1924;48.078;11.516;2023-09-07T08:13:58;19.60;99.90
3818;DHT22;1924;48.078;11.516;2023-09-07T08:16:25;19.70;99.90
3818;DHT22;1924;48.078;11.516;2023-09-07T08:18:53;19.30;99.90
3818;DHT22;1924;48.078;11.516;2023-09-07T08:21:20;19.20;99.90
3818;DHT22;1924;48.078;11.516;2023-09-07T08:23:47;19.20;99.90
3818;DHT22;1924;48.078;11.516;2023-09-07T08:26:13;19.50;99.90
3818;DHT22;1924;48.078;11.516;2023-09-07T08:28:40;19.60;99.90
3818;DHT22;1924;48.078;11.516;2023-09-07T08:31:11;19.50;99.90
3818;DHT22;1924;48.078;11.516;2023-09-07T08:33:40;19.60;99.90
3818;DHT22;1924;48.078;11.516;2023-09-07T08:36:08;19.70;99.90
3818;DHT22;1924;48.078;11.516;2023-09-07T08:38:35;19.80;99.90
3818;DHT22;1924;48.078;11.516;2023-09-07T08:41:02;19.90;99.90
3818;DHT22;1924;48.078;11.516;2023-09-07T08:43:33;19.90;99.90
3818;DHT22;1924;48.078;11.516;2023-09-07T08:46:06;19.90;99.90
3818;DHT22;1924;48.078;11.516;2023-09-07T08:48:37;20.00;99.90
3818;DHT22;1924;48.078;11.516;2023-09-07T08:51:05;20.10;99.90
3818;DHT22;1924;48.078;11.516;2023-09-07T08:53:35;20.10;99.90
3818;DHT22;1924;48.078;11.516;2023-09-07T08:56:03;20.10;99.90
3818;DHT22;1924;48.078;11.516;2023-09-07T08:58:30;20.10;99.90
3818;DHT22;1924;48.078;11.516;2023-09-07T09:00:57;20.10;99.90
3818;DHT22;1924;48.078;11.516;2023-09-07T09:03:24;20.20;99.90
3818;DHT22;1924;48.078;11.516;2023-09-07T09:05:53;20.20;99.90
3818;DHT22;1924;48.078;11.516;2023-09-07T09:08:20;20.30;99.90
3818;DHT22;1924;48.078;11.516;2023-09-07T09:10:58;20.30;99.90
3818;DHT22;1924;48.078;11.516;2023-09-07T09:13:27;20.30;99.90
3818;DHT22;1924;48.078;11.516;2023-09-07T09:15:54;20.30;99.90
3818;DHT22;1924;48.078;11.516;2023-09-07T09:18:21;20.30;99.90
3818;DHT22;1924;48.078;11.516;2023-09-07T09:20:48;20.40;99.90
3818;DHT22;1924;48.078;11.516;2023-09-07T09:23:15;20.60;99.90
3818;DHT22;1924;48.078;11.516;2023-09-07T09:25:41;20.70;99.90
3818;DHT22;1924;48.078;11.516;2023-09-07T09:28:10;20.70;99.90
3818;DHT22;1924;48.078;11.516;2023-09-07T09:30:37;20.90;99.90
3818;DHT22;1924;48.078;11.516;2023-09-07T09:33:05;20.90;99.90
3818;DHT22;1924;48.078;11.516;2023-09-07T09:35:34;21.00;99.90
3818;DHT22;1924;48.078;11.516;2023-09-07T09:38:02;21.10;99.90
3818;DHT22;1924;48.078;11.516;2023-09-07T09:40:30;21.30;99.90
3818;DHT22;1924;48.078;11.516;2023-09-07T09:42:58;21.30;99.90
3818;DHT22;1924;48.078;11.516;2023-09-07T09:45:27;21.40;99.90
3818;DHT22;1924;48.078;11.516;2023-09-07T09:47:55;21.40;99.90
3818;DHT22;1924;48.078;11.516;2023-09-07T09:50:23;21.50;99.90
3818;DHT22;1924;48.078;11.516;2023-09-07T09:52:51;21.60;99.90
3818;DHT22;1924;48.078;11.516;2023-09-07T09:55:19;21.70;99.90
3818;DHT22;1924;48.078;11.516;2023-09-07T09:57:45;21.80;99.90
3818;DHT22;1924;48.078;11.516;2023-09-07T10:00:13;21.80;99.90
3818;DHT22;1924;48.078;11.516;2023-09-07T10:02:58;21.90;99.90
3818;DHT22;1924;48.078;11.516;2023-09-07T10:05:27;21.90;99.90
3818;DHT22;1924;48.078;11.516;2023-09-07T10:08:00;22.00;99.90
3818;DHT22;1924;48.078;11.516;2023-09-07T10:10:33;22.10;99.90
3818;DHT22;1924;48.078;11.516;2023-09-07T10:13:00;22.30;99.90
3818;DHT22;1924;48.078;11.516;2023-09-07T10:15:27;22.40;99.90
3818;DHT22;1924;48.078;11.516;2023-09-07T10:18:09;22.50;99.90
3818;DHT22;1924;48.078;11.516;2023-09-07T10:20:53;22.70;99.90
3818;DHT22;1924;48.078;11.516;2023-09-07T10:23:21;22.80;99.90
3818;DHT22;1924;48.078;11.516;2023-09-07T10:25:50;23.10;99.90
3818;DHT22;1924;48.078;11.516;2023-09-07T10:28:21;23.00;99.90
3818;DHT22;1924;48.078;11.516;2023-09-07T10:30:58;23.00;99.90
3818;DHT22;1924;48.078;11.516;2023-09-07T10:33:27;23.20;99.90
3818;DHT22;1924;48.078;11.516;2023-09-07T10:35:53;23.60;99.90
3818;DHT22;1924;48.078;11.516;2023-09-07T10:38:20;23.70;99.60
3818;DHT22;1924;48.078;11.516;2023-09-07T10:40:47;23.60;99.70
3818;DHT22;1924;48.078;11.516;2023-09-07T10:43:14;23.60;98.80
3818;DHT22;1924;48.078;11.516;2023-09-07T10:45:44;23.80;99.90
3818;DHT22;1924;48.078;11.516;2023-09-07T10:48:12;23.60;98.90
3818;DHT22;1924;48.078;11.516;2023-09-07T10:50:46;23.80;99.70
3818;DHT22;1924;48.078;11.516;2023-09-07T10:53:14;23.90;99.10
3818;DHT22;1924;48.078;11.516;2023-09-07T10:55:41;24.20;99.70
3818;DHT22;1924;48.078;11.516;2023-09-07T10:58:10;24.10;98.00
3818;DHT22;1924;48.078;11.516;2023-09-07T11:00:37;24.10;98.40
3818;DHT22;1924;48.078;11.516;2023-09-07T11:03:07;24.10;97.90
3818;DHT22;1924;48.078;11.516;2023-09-07T11:05:35;24.20;97.80
3818;DHT22;1924;48.078;11.516;2023-09-07T11:08:06;24.10;98.00
3818;DHT22;1924;48.078;11.516;2023-09-07T11:10:33;24.30;98.10
3818;DHT22;1924;48.078;11.516;2023-09-07T11:13:02;24.20;97.40
3818;DHT22;1924;48.078;11.516;2023-09-07T11:15:30;24.30;97.50
3818;DHT22;1924;48.078;11.516;2023-09-07T11:17:57;24.30;96.90
3818;DHT22;1924;48.078;11.516;2023-09-07T11:20:24;24.40;97.40
3818;DHT22;1924;48.078;11.516;2023-09-07T11:22:51;24.60;97.60
3818;DHT22;1924;48.078;11.516;2023-09-07T11:25:19;24.50;96.40
3818;DHT22;1924;48.078;11.516;2023-09-07T11:27:46;24.40;96.60
3818;DHT22;1924;48.078;11.516;2023-09-07T11:30:13;24.30;97.80
3818;DHT22;1924;48.078;11.516;2023-09-07T11:32:40;24.50;97.20
3818;DHT22;1924;48.078;11.516;2023-09-07T11:35:09;24.70;97.10
3818;DHT22;1924;48.078;11.516;2023-09-07T11:37:36;25.00;96.40
3818;DHT22;1924;48.078;11.516;2023-09-07T11:40:04;25.00;96.10
3818;DHT22;1924;48.078;11.516;2023-09-07T11:42:38;24.90;95.60
3818;DHT22;1924;48.078;11.516;2023-09-07T11:45:06;24.60;95.90
3818;DHT22;1924;48.078;11.516;2023-09-07T11:47:35;24.60;96.20
3818;DHT22;1924;48.078;11.516;2023-09-07T11:50:03;24.80;95.70
3818;DHT22;1924;48.078;11.516;2023-09-07T11:52:30;24.70;95.90
3818;DHT22;1924;48.078;11.516;2023-09-07T11:54:57;24.70;95.40
3818;DHT22;1924;48.078;11.516;2023-09-07T11:57:24;25.10;96.00
3818;DHT22;1924;48.078;11.516;2023-09-07T11:59:52;25.40;95.40
3818;DHT22;1924;48.078;11.516;2023-09-07T12:02:19;25.50;94.70
3818;DHT22;1924;48.078;11.516;2023-09-07T12:04:46;25.40;95.30
3818;DHT22;1924;48.078;11.516;2023-09-07T12:07:13;25.30;94.70
3818;DHT22;1924;48.078;11.516;2023-09-07T12:09:41;25.00;95.40
3818;DHT22;1924;48.078;11.516;2023-09-07T12:12:08;24.90;95.60
3818;DHT22;1924;48.078;11.516;2023-09-07T12:14:36;25.00;95.90
3818;DHT22;1924;48.078;11.516;2023-09-07T12:17:04;25.30;95.30
3818;DHT22;1924;48.078;11.516;2023-09-07T12:19:31;25.40;94.10
3818;DHT22;1924;48.078;11.516;2023-09-07T12:21:58;25.20;94.40
3818;DHT22;1924;48.078;11.516;2023-09-07T12:24:25;25.40;95.10
3818;DHT22;1924;48.078;11.516;2023-09-07T12:26:52;25.40;94.40
3818;DHT22;1924;48.078;11.516;2023-09-07T12:29:19;25.60;95.90
3818;DHT22;1924;48.078;11.516;2023-09-07T12:31:46;25.60;94.50
3818;DHT22;1924;48.078;11.516;2023-09-07T12:34:14;25.70;93.70
3818;DHT22;1924;48.078;11.516;2023-09-07T12:36:41;25.70;94.10
3818;DHT22;1924;48.078;11.516;2023-09-07T12:39:08;25.60;93.20
3818;DHT22;1924;48.078;11.516;2023-09-07T12:41:38;25.30;94.20
3818;DHT22;1924;48.078;11.516;2023-09-07T12:44:05;25.50;93.90
3818;DHT22;1924;48.078;11.516;2023-09-07T12:46:32;25.20;94.20
3818;DHT22;1924;48.078;11.516;2023-09-07T12:48:58;25.10;94.20
3818;DHT22;1924;48.078;11.516;2023-09-07T12:51:27;25.40;94.60
3818;DHT22;1924;48.078;11.516;2023-09-07T12:53:54;25.30;93.80
3818;DHT22;1924;48.078;11.516;2023-09-07T12:56:21;25.30;94.00
3818;DHT22;1924;48.078;11.516;2023-09-07T12:58:47;25.60;94.00
3818;DHT22;1924;48.078;11.516;2023-09-07T13:01:14;25.60;93.90
3818;DHT22;1924;48.078;11.516;2023-09-07T13:03:42;25.70;95.10
3818;DHT22;1924;48.078;11.516;2023-09-07T13:06:09;25.80;93.80
3818;DHT22;1924;48.078;11.516;2023-09-07T13:08:37;25.90;93.50
3818;DHT22;1924;48.078;11.516;2023-09-07T13:11:04;25.90;94.10
3818;DHT22;1924;48.078;11.516;2023-09-07T13:13:30;25.90;93.50
3818;DHT22;1924;48.078;11.516;2023-09-07T13:15:58;25.90;93.60
3818;DHT22;1924;48.078;11.516;2023-09-07T13:18:24;25.90;94.10
3818;DHT22;1924;48.078;11.516;2023-09-07T13:20:51;26.00;93.30
3818;DHT22;1924;48.078;11.516;2023-09-07T13:23:20;26.00;93.70
3818;DHT22;1924;48.078;11.516;2023-09-07T13:25:52;26.00;93.00
3818;DHT22;1924;48.078;11.516;2023-09-07T13:28:18;25.90;92.10
3818;DHT22;1924;48.078;11.516;2023-09-07T13:30:45;25.70;92.60
3818;DHT22;1924;48.078;11.516;2023-09-07T13:33:12;25.70;91.60
3818;DHT22;1924;48.078;11.516;2023-09-07T13:35:41;25.60;92.00
3818;DHT22;1924;48.078;11.516;2023-09-07T13:38:07;25.40;92.10
3818;DHT22;1924;48.078;11.516;2023-09-07T13:40:34;25.40;92.20
3818;DHT22;1924;48.078;11.516;2023-09-07T13:43:03;25.20;92.70
3818;DHT22;1924;48.078;11.516;2023-09-07T13:45:30;25.30;92.90
3818;DHT22;1924;48.078;11.516;2023-09-07T13:47:57;25.40;92.50
3818;DHT22;1924;48.078;11.516;2023-09-07T13:50:23;25.30;92.50
3818;DHT22;1924;48.078;11.516;2023-09-07T13:52:50;25.30;92.00
3818;DHT22;1924;48.078;11.516;2023-09-07T13:55:17;25.20;92.50
3818;DHT22;1924;48.078;11.516;2023-09-07T13:57:44;25.30;92.60
3818;DHT22;1924;48.078;11.516;2023-09-07T14:00:12;25.20;92.10
3818;DHT22;1924;48.078;11.516;2023-09-07T14:02:39;25.20;92.30
3818;DHT22;1924;48.078;11.516;2023-09-07T14:05:06;25.20;92.00
3818;DHT22;1924;48.078;11.516;2023-09-07T14:07:33;25.10;91.80
3818;DHT22;1924;48.078;11.516;2023-09-07T14:10:00;25.00;90.80
3818;DHT22;1924;48.078;11.516;2023-09-07T14:12:27;24.90;91.10
3818;DHT22;1924;48.078;11.516;2023-09-07T14:14:54;24.80;91.30
3818;DHT22;1924;48.078;11.516;2023-09-07T14:17:22;24.80;90.90
3818;DHT22;1924;48.078;11.516;2023-09-07T14:19:49;24.80;91.40
3818;DHT22;1924;48.078;11.516;2023-09-07T14:22:15;24.70;90.90
3818;DHT22;1924;48.078;11.516;2023-09-07T14:24:42;24.60;90.70
3818;DHT22;1924;48.078;11.516;2023-09-07T14:27:09;24.70;90.90
3818;DHT22;1924;48.078;11.516;2023-09-07T14:29:36;24.70;90.50
3818;DHT22;1924;48.078;11.516;2023-09-07T14:32:03;24.70;90.70
3818;DHT22;1924;48.078;11.516;2023-09-07T14:34:31;24.70;90.50
3818;DHT22;1924;48.078;11.516;2023-09-07T14:36:59;24.70;90.60
3818;DHT22;1924;48.078;11.516;2023-09-07T14:39:25;24.70;90.50
3818;DHT22;1924;48.078;11.516;2023-09-07T14:41:52;24.60;90.90
3818;DHT22;1924;48.078;11.516;2023-09-07T14:44:22;24.70;91.00
3818;DHT22;1924;48.078;11.516;2023-09-07T14:46:49;24.80;90.70
3818;DHT22;1924;48.078;11.516;2023-09-07T14:49:20;24.70;90.90
3818;DHT22;1924;48.078;11.516;2023-09-07T14:51:48;24.70;90.60
3818;DHT22;1924;48.078;11.516;2023-09-07T14:54:16;24.60;90.40
3818;DHT22;1924;48.078;11.516;2023-09-07T14:56:43;24.60;90.90
3818;DHT22;1924;48.078;11.516;2023-09-07T14:59:10;24.70;90.10
3818;DHT22;1924;48.078;11.516;2023-09-07T15:01:37;24.70;90.80
3818;DHT22;1924;48.078;11.516;2023-09-07T15:04:04;24.60;90.60
3818;DHT22;1924;48.078;11.516;2023-09-07T15:06:31;24.60;90.10
3818;DHT22;1924;48.078;11.516;2023-09-07T15:09:00;24.50;90.00
3818;DHT22;1924;48.078;11.516;2023-09-07T15:11:27;24.50;90.10
3818;DHT22;1924;48.078;11.516;2023-09-07T15:13:54;24.50;90.00
3818;DHT22;1924;48.078;11.516;2023-09-07T15:16:24;24.50;90.00
3818;DHT22;1924;48.078;11.516;2023-09-07T15:18:51;24.50;90.10
3818;DHT22;1924;48.078;11.516;2023-09-07T15:21:18;24.50;89.50
3818;DHT22;1924;48.078;11.516;2023-09-07T15:23:44;24.40;89.50
3818;DHT22;1924;48.078;11.516;2023-09-07T15:26:14;24.40;89.20
3818;DHT22;1924;48.078;11.516;2023-09-07T15:28:41;24.30;88.90
3818;DHT22;1924;48.078;11.516;2023-09-07T15:31:07;24.30;89.30
3818;DHT22;1924;48.078;11.516;2023-09-07T15:33:34;24.30;89.50
3818;DHT22;1924;48.078;11.516;2023-09-07T15:36:01;24.30;88.10
3818;DHT22;1924;48.078;11.516;2023-09-07T15:38:28;24.40;88.10
3818;DHT22;1924;48.078;11.516;2023-09-07T15:40:55;24.30;88.20
3818;DHT22;1924;48.078;11.516;2023-09-07T15:43:23;24.30;88.00
3818;DHT22;1924;48.078;11.516;2023-09-07T15:45:50;24.30;88.00
3818;DHT22;1924;48.078;11.516;2023-09-07T15:48:16;24.30;88.30
3818;DHT22;1924;48.078;11.516;2023-09-07T15:50:43;24.30;85.70
3818;DHT22;1924;48.078;11.516;2023-09-07T15:53:10;24.30;84.50
3818;DHT22;1924;48.078;11.516;2023-09-07T15:55:37;24.30;83.20
3818;DHT22;1924;48.078;11.516;2023-09-07T15:58:05;24.20;83.80
3818;DHT22;1924;48.078;11.516;2023-09-07T16:00:33;24.10;84.30
3818;DHT22;1924;48.078;11.516;2023-09-07T16:03:00;24.10;84.60
3818;DHT22;1924;48.078;11.516;2023-09-07T16:05:26;24.10;84.80
3818;DHT22;1924;48.078;11.516;2023-09-07T16:07:53;24.10;85.10
3818;DHT22;1924;48.078;11.516;2023-09-07T16:10:20;24.10;84.60
3818;DHT22;1924;48.078;11.516;2023-09-07T16:12:47;24.10;84.20
3818;DHT22;1924;48.078;11.516;2023-09-07T16:15:13;23.90;84.00
3818;DHT22;1924;48.078;11.516;2023-09-07T16:17:42;23.90;84.80
3818;DHT22;1924;48.078;11.516;2023-09-07T16:20:09;23.80;85.10
3818;DHT22;1924;48.078;11.516;2023-09-07T16:22:36;23.80;85.30
3818;DHT22;1924;48.078;11.516;2023-09-07T16:25:03;23.80;84.90
3818;DHT22;1924;48.078;11.516;2023-09-07T16:27:30;23.70;85.40
3818;DHT22;1924;48.078;11.516;2023-09-07T16:30:00;23.60;85.50
3818;DHT22;1924;48.078;11.516;2023-09-07T16:32:27;23.60;86.30
3818;DHT22;1924;48.078;11.516;2023-09-07T16:34:55;23.60;87.00
3818;DHT22;1924;48.078;11.516;2023-09-07T16:37:21;23.60;88.20
3818;DHT22;1924;48.078;11.516;2023-09-07T16:39:52;23.60;89.30
3818;DHT22;1924;48.078;11.516;2023-09-07T16:42:19;23.70;88.60
3818;DHT22;1924;48.078;11.516;2023-09-07T16:44:46;23.60;89.50
3818;DHT22;1924;48.078;11.516;2023-09-07T16:47:13;23.60;88.50
3818;DHT22;1924;48.078;11.516;2023-09-07T16:49:39;23.50;88.10
3818;DHT22;1924;48.078;11.516;2023-09-07T16:52:07;23.50;88.90
3818;DHT22;1924;48.078;11.516;2023-09-07T16:54:35;23.50;89.60
3818;DHT22;1924;48.078;11.516;2023-09-07T16:57:01;23.50;89.10
3818;DHT22;1924;48.078;11.516;2023-09-07T16:59:28;23.40;88.10
3818;DHT22;1924;48.078;11.516;2023-09-07T17:01:56;23.40;88.50
3818;DHT22;1924;48.078;11.516;2023-09-07T17:04:31;23.40;88.70
3818;DHT22;1924;48.078;11.516;2023-09-07T17:06:58;23.30;88.70
3818;DHT22;1924;48.078;11.516;2023-09-07T17:09:26;23.20;90.00
3818;DHT22;1924;48.078;11.516;2023-09-07T17:11:53;23.00;90.00
3818;DHT22;1924;48.078;11.516;2023-09-07T17:14:19;23.00;90.00
3818;DHT22;1924;48.078;11.516;2023-09-07T17:16:46;23.00;90.10
3818;DHT22;1924;48.078;11.516;2023-09-07T17:19:13;22.90;90.60
3818;DHT22;1924;48.078;11.516;2023-09-07T17:21:40;22.80;90.60
3818;DHT22;1924;48.078;11.516;2023-09-07T17:24:07;22.80;90.40
3818;DHT22;1924;48.078;11.516;2023-09-07T17:26:35;22.80;90.70
3818;DHT22;1924;48.078;11.516;2023-09-07T17:29:02;22.70;91.00
3818;DHT22;1924;48.078;11.516;2023-09-07T17:31:28;22.60;92.00
3818;DHT22;1924;48.078;11.516;2023-09-07T17:33:58;22.50;91.60
3818;DHT22;1924;48.078;11.516;2023-09-07T17:36:24;22.50;92.60
3818;DHT22;1924;48.078;11.516;2023-09-07T17:38:53;22.40;93.20
3818;DHT22;1924;48.078;11.516;2023-09-07T17:41:24;22.30;93.40
3818;DHT22;1924;48.078;11.516;2023-09-07T17:43:53;22.20;93.70
3818;DHT22;1924;48.078;11.516;2023-09-07T17:46:19;22.10;93.90
3818;DHT22;1924;48.078;11.516;2023-09-07T17:48:46;22.00;94.20
3818;DHT22;1924;48.078;11.516;2023-09-07T17:51:13;21.90;94.30
3818;DHT22;1924;48.078;11.516;2023-09-07T17:53:40;21.90;94.50
3818;DHT22;1924;48.078;11.516;2023-09-07T17:56:08;21.80;94.50
3818;DHT22;1924;48.078;11.516;2023-09-07T17:58:36;21.70;94.60
3818;DHT22;1924;48.078;11.516;2023-09-07T18:01:12;21.60;94.70
3818;DHT22;1924;48.078;11.516;2023-09-07T18:03:40;21.60;95.20
3818;DHT22;1924;48.078;11.516;2023-09-07T18:06:16;21.50;95.40
3818;DHT22;1924;48.078;11.516;2023-09-07T18:08:43;21.40;95.70
3818;DHT22;1924;48.078;11.516;2023-09-07T18:11:10;21.30;95.50
3818;DHT22;1924;48.078;11.516;2023-09-07T18:13:37;21.20;95.90
3818;DHT22;1924;48.078;11.516;2023-09-07T18:16:05;21.10;95.80
3818;DHT22;1924;48.078;11.516;2023-09-07T18:18:32;21.10;96.20
3818;DHT22;1924;48.078;11.516;2023-09-07T18:21:04;21.00;96.70
3818;DHT22;1924;48.078;11.516;2023-09-07T18:23:31;20.90;96.60
3818;DHT22;1924;48.078;11.516;2023-09-07T18:25:57;20.90;97.00
3818;DHT22;1924;48.078;11.516;2023-09-07T18:28:24;20.80;97.10
3818;DHT22;1924;48.078;11.516;2023-09-07T18:30:52;20.80;97.30
3818;DHT22;1924;48.078;11.516;2023-09-07T18:33:20;20.70;97.40
3818;DHT22;1924;48.078;11.516;2023-09-07T18:35:49;20.70;97.60
3818;DHT22;1924;48.078;11.516;2023-09-07T18:38:24;20.60;97.80
3818;DHT22;1924;48.078;11.516;2023-09-07T18:40:51;20.50;97.90
3818;DHT22;1924;48.078;11.516;2023-09-07T18:43:18;20.40;97.80
3818;DHT22;1924;48.078;11.516;2023-09-07T18:45:45;20.40;97.90
3818;DHT22;1924;48.078;11.516;2023-09-07T18:48:11;20.40;98.00
3818;DHT22;1924;48.078;11.516;2023-09-07T18:50:39;20.30;98.00
3818;DHT22;1924;48.078;11.516;2023-09-07T18:53:06;20.30;98.20
3818;DHT22;1924;48.078;11.516;2023-09-07T18:55:33;20.20;98.50
3818;DHT22;1924;48.078;11.516;2023-09-07T18:58:00;20.20;98.30
3818;DHT22;1924;48.078;11.516;2023-09-07T19:00:28;20.20;98.80
3818;DHT22;1924;48.078;11.516;2023-09-07T19:02:55;20.10;98.90
3818;DHT22;1924;48.078;11.516;2023-09-07T19:05:22;20.10;99.10
3818;DHT22;1924;48.078;11.516;2023-09-07T19:07:50;20.00;99.10
3818;DHT22;1924;48.078;11.516;2023-09-07T19:10:18;20.00;99.20
3818;DHT22;1924;48.078;11.516;2023-09-07T19:12:45;19.90;99.20
3818;DHT22;1924;48.078;11.516;2023-09-07T19:15:11;19.90;99.40
3818;DHT22;1924;48.078;11.516;2023-09-07T19:17:39;19.90;99.40
3818;DHT22;1924;48.078;11.516;2023-09-07T19:20:06;19.80;99.50
3818;DHT22;1924;48.078;11.516;2023-09-07T19:22:34;19.80;99.60
3818;DHT22;1924;48.078;11.516;2023-09-07T19:25:04;19.70;99.80
3818;DHT22;1924;48.078;11.516;2023-09-07T19:27:31;19.70;99.90
3818;DHT22;1924;48.078;11.516;2023-09-07T19:29:57;19.60;99.90
3818;DHT22;1924;48.078;11.516;2023-09-07T19:32:25;19.60;99.90
3818;DHT22;1924;48.078;11.516;2023-09-07T19:34:52;19.60;99.90
3818;DHT22;1924;48.078;11.516;2023-09-07T19:37:19;19.50;99.90
3818;DHT22;1924;48.078;11.516;2023-09-07T19:39:46;19.50;99.90
3818;DHT22;1924;48.078;11.516;2023-09-07T19:42:14;19.40;99.90
3818;DHT22;1924;48.078;11.516;2023-09-07T19:44:40;19.40;99.90
3818;DHT22;1924;48.078;11.516;2023-09-07T19:47:07;19.40;99.90